Time;durP1;ratioP1;P1;durP2;ratioP2;P2;SDS_P1;SDS_P2;PMS_P1;PMS_P2;Temp;Humidity;BMP_temperature;BMP_pressure;BME280_temperature;BME280_humidity;BME280_pressure;Samples;Min_cycle;Max_cycle;Signal;HPM_P1;HPM_P2
2022/11/26 00:00:39;;;;;;;21.08;8.40;;;;;;;8.17;54.73;102429.03;7392504;19;20087;-58
2022/11/26 00:03:05;;;;;;;23.77;8.90;;;;;;;8.20;54.81;102427.63;7390374;19;20003;-58
2022/11/26 00:05:31;;;;;;;23.40;9.02;;;;;;;8.22;54.72;102429.00;7391954;19;20029;-59
2022/11/26 00:07:59;;;;;;;21.45;8.38;;;;;;;8.18;54.46;102425.22;7391537;19;19999;-60
2022/11/26 00:10:28;;;;;;;24.10;8.38;;;;;;;8.12;54.84;102429.88;7392125;19;20058;-58
2022/11/26 00:12:56;;;;;;;19.88;8.48;;;;;;;8.06;54.89;102433.72;7392185;19;20319;-59
2022/11/26 00:15:28;;;;;;;22.05;8.90;;;;;;;8.16;54.68;102433.69;7391229;19;20019;-59
2022/11/26 00:17:54;;;;;;;25.08;8.32;;;;;;;8.20;54.69;102439.34;7391381;19;19999;-58
2022/11/26 00:20:26;;;;;;;24.90;9.27;;;;;;;8.16;54.44;102441.84;7389365;19;20010;-59
2022/11/26 00:22:54;;;;;;;22.58;8.98;;;;;;;8.14;54.73;102443.22;7390261;19;20003;-59
2022/11/26 00:25:22;;;;;;;21.73;8.48;;;;;;;8.10;54.70;102440.25;7390896;19;20023;-59
2022/11/26 00:27:51;;;;;;;23.92;8.35;;;;;;;8.12;54.57;102448.94;7390372;19;20066;-59
2022/11/26 00:30:25;;;;;;;22.63;8.35;;;;;;;8.08;54.71;102447.88;7389364;19;20353;-59
2022/11/26 00:32:52;;;;;;;23.58;8.15;;;;;;;8.10;54.54;102444.88;7391351;19;20013;-59
2022/11/26 00:35:19;;;;;;;21.50;7.80;;;;;;;8.04;54.54;102446.00;7389185;19;19999;-59
2022/11/26 00:37:52;;;;;;;17.38;7.53;;;;;;;7.97;54.84;102455.28;7389615;19;20071;-59
2022/11/26 00:40:21;;;;;;;27.52;8.27;;;;;;;8.02;54.53;102459.09;7391849;19;20006;-59
2022/11/26 00:42:47;;;;;;;20.85;8.02;;;;;;;8.01;54.78;102463.69;7390281;19;20213;-59
2022/11/26 00:45:26;;;;;;;24.05;8.35;;;;;;;8.03;54.52;102453.38;7389836;19;20463;-59
2022/11/26 00:47:52;;;;;;;22.73;8.40;;;;;;;8.01;54.64;102460.97;7389807;19;20285;-59
2022/11/26 00:50:25;;;;;;;21.00;8.20;;;;;;;7.91;54.75;102453.72;7389018;19;20007;-59
2022/11/26 00:52:53;;;;;;;21.73;8.32;;;;;;;7.88;54.65;102469.75;7391145;19;20377;-59
2022/11/26 00:55:29;;;;;;;28.48;8.10;;;;;;;7.90;54.55;102462.97;7389937;19;20007;-59
2022/11/26 00:57:55;;;;;;;23.58;9.07;;;;;;;7.91;54.39;102475.47;7390600;19;20018;-59
2022/11/26 01:00:24;;;;;;;21.63;8.07;;;;;;;7.78;54.59;102468.75;7390185;19;20002;-59
2022/11/26 01:02:50;;;;;;;18.25;8.27;;;;;;;7.73;54.76;102473.38;7389440;19;19999;-59
2022/11/26 01:05:17;;;;;;;22.73;8.35;;;;;;;7.77;54.70;102475.28;7390260;19;20012;-58
2022/11/26 01:07:44;;;;;;;26.00;9.02;;;;;;;7.75;54.61;102472.03;7390349;19;20010;-59
2022/11/26 01:10:22;;;;;;;25.35;9.10;;;;;;;7.62;54.83;102477.28;7388391;19;20028;-59
2022/11/26 01:12:49;;;;;;;20.00;8.23;;;;;;;7.75;54.60;102490.25;7390448;19;20024;-59
2022/11/26 01:15:18;;;;;;;18.17;8.48;;;;;;;7.84;54.51;102493.97;7389045;19;20014;-59
2022/11/26 01:17:44;;;;;;;23.92;9.10;;;;;;;7.94;54.20;102498.56;7388472;19;20128;-58
2022/11/26 01:20:23;;;;;;;25.23;8.93;;;;;;;7.91;54.25;102507.25;7388533;19;20003;-59
2022/11/26 01:22:56;;;;;;;21.42;8.70;;;;;;;7.79;54.57;102504.88;7389020;19;20008;-59
2022/11/26 01:25:24;;;;;;;22.00;8.85;;;;;;;7.76;54.48;102502.72;7389209;19;20034;-59
2022/11/26 01:27:51;;;;;;;25.58;9.38;;;;;;;7.78;54.40;102514.97;7389776;19;19994;-58
2022/11/26 01:30:22;;;;;;;21.30;8.90;;;;;;;7.68;54.55;102509.59;7384901;19;20368;-58
2022/11/26 01:32:48;;;;;;;26.20;8.80;;;;;;;7.74;54.30;102516.59;7396183;19;20061;-59
2022/11/26 01:35:15;;;;;;;22.95;8.20;;;;;;;7.70;54.46;102518.25;7396411;19;19999;-58
2022/11/26 01:37:42;;;;;;;17.30;7.43;;;;;;;7.67;54.68;102518.00;7397233;19;20022;-58
2022/11/26 01:40:34;;;;;;;22.95;9.10;;;;;;;7.69;54.22;102518.53;7394429;19;20010;-58
2022/11/26 01:43:16;;;;;;;22.75;8.85;;;;;;;7.70;54.21;102522.91;7392713;19;20022;-58
2022/11/26 01:45:41;;;;;;;21.65;8.75;;;;;;;7.72;54.39;102529.66;7396083;19;20002;-58
2022/11/26 01:48:22;;;;;;;23.80;8.30;;;;;;;7.81;53.99;102534.50;7396122;19;20013;-59
2022/11/26 01:51:07;;;;;;;23.98;9.10;;;;;;;7.79;54.14;102537.50;7396221;19;20009;-59
2022/11/26 01:53:54;;;;;;;18.50;8.02;;;;;;;7.77;53.85;102534.25;7394351;19;20450;-59
2022/11/26 01:56:24;;;;;;;21.42;8.82;;;;;;;7.77;54.19;102545.94;7394264;19;20002;-59
2022/11/26 01:58:56;;;;;;;23.17;9.05;;;;;;;7.58;54.42;102547.69;7395262;19;20030;-59
2022/11/26 02:01:22;;;;;;;21.20;7.95;;;;;;;7.57;54.28;102549.56;7394516;19;20389;-59
2022/11/26 02:04:13;;;;;;;27.50;9.25;;;;;;;7.70;54.14;102544.63;7397146;19;20062;-59
2022/11/26 02:06:41;;;;;;;25.08;8.00;;;;;;;7.75;53.94;102548.13;7396122;19;20009;-59
2022/11/26 02:09:09;;;;;;;23.30;9.00;;;;;;;7.66;54.19;102549.78;7394796;19;20003;-59
2022/11/26 02:11:35;;;;;;;23.15;7.97;;;;;;;7.64;54.27;102551.19;7396549;19;20007;-58
2022/11/26 02:14:17;;;;;;;23.13;8.63;;;;;;;7.60;54.21;102554.44;7396056;19;19995;-59
2022/11/26 02:16:55;;;;;;;22.27;8.07;;;;;;;7.57;54.37;102559.63;7394790;19;20372;-60
2022/11/26 02:19:42;;;;;;;23.25;8.55;;;;;;;7.66;54.34;102555.22;7392503;19;20002;-59
2022/11/26 02:22:35;;;;;;;21.65;8.45;;;;;;;7.71;54.10;102557.94;7394552;19;20002;-59
2022/11/26 02:25:07;;;;;;;21.48;8.65;;;;;;;7.70;54.13;102563.66;7392651;19;19994;-59
2022/11/26 02:27:47;;;;;;;19.05;7.90;;;;;;;7.74;53.91;102570.97;7395621;19;20050;-58
2022/11/26 02:30:14;;;;;;;23.10;7.72;;;;;;;7.65;54.37;102575.38;7392544;19;20652;-59
2022/11/26 02:32:57;;;;;;;23.98;8.55;;;;;;;7.70;54.14;102575.34;7395932;19;19998;-59
2022/11/26 02:35:38;;;;;;;21.05;8.45;;;;;;;7.67;54.31;102586.75;7394427;19;20029;-59
2022/11/26 02:38:20;;;;;;;21.45;8.88;;;;;;;7.62;54.29;102586.78;7395147;19;20023;-59
2022/11/26 02:40:46;;;;;;;22.13;8.48;;;;;;;7.67;54.10;102583.25;7394510;19;19998;-59
2022/11/26 02:43:14;;;;;;;23.42;7.93;;;;;;;7.67;54.10;102577.81;7392621;19;20653;-57
2022/11/26 02:45:47;;;;;;;27.25;8.60;;;;;;;7.76;54.02;102582.38;7394459;19;19994;-58
2022/11/26 02:48:20;;;;;;;24.52;9.07;;;;;;;7.70;53.96;102586.22;7394655;19;20312;-58
2022/11/26 02:50:50;;;;;;;23.03;8.03;;;;;;;7.58;54.28;102586.53;7394321;19;19999;-58
2022/11/26 02:53:20;;;;;;;24.15;8.02;;;;;;;7.60;54.26;102591.69;7395416;19;20285;-59
2022/11/26 02:55:50;;;;;;;19.85;8.32;;;;;;;7.63;54.01;102588.41;7393988;19;20009;-59
2022/11/26 02:58:17;;;;;;;23.20;8.68;;;;;;;7.59;54.02;102593.56;7392649;19;20006;-60
2022/11/26 03:00:45;;;;;;;22.70;8.20;;;;;;;7.55;54.18;102599.84;7394315;19;20023;-59
2022/11/26 03:03:22;;;;;;;17.80;8.27;;;;;;;7.47;54.43;102600.44;7393533;19;20008;-59
2022/11/26 03:05:55;;;;;;;24.00;9.13;;;;;;;7.52;54.38;102603.13;7393305;19;19998;-58
2022/11/26 03:08:21;;;;;;;25.00;9.70;;;;;;;7.55;54.28;102602.56;7393830;19;19999;-59
2022/11/26 03:10:47;;;;;;;21.50;8.45;;;;;;;7.56;54.07;102609.63;7391923;19;20314;-59
2022/11/26 03:13:13;;;;;;;23.98;9.25;;;;;;;7.58;54.02;102610.19;7394630;19;19998;-59
2022/11/26 03:15:38;;;;;;;19.52;8.25;;;;;;;7.48;54.21;102611.03;7392895;19;20007;-59
2022/11/26 03:18:04;;;;;;;21.95;8.90;;;;;;;7.50;54.11;102610.75;7393662;19;20030;-59
2022/11/26 03:20:30;;;;;;;25.45;9.15;;;;;;;7.51;54.26;102615.06;7394109;19;19999;-59
2022/11/26 03:22:56;;;;;;;20.23;8.35;;;;;;;7.40;54.31;102612.38;7392458;19;20020;-59
2022/11/26 03:25:21;;;;;;;21.95;8.48;;;;;;;7.43;54.13;102613.75;7393057;19;19994;-60
2022/11/26 03:27:47;;;;;;;24.42;8.85;;;;;;;7.46;54.19;102618.59;7393178;19;20504;-59
2022/11/26 03:30:13;;;;;;;25.02;8.95;;;;;;;7.45;54.13;102613.47;7389331;19;20070;-58
2022/11/26 03:32:38;;;;;;;22.23;8.85;;;;;;;7.47;53.97;102608.56;7392268;19;20492;-58
2022/11/26 03:35:05;;;;;;;21.20;8.40;;;;;;;7.52;54.05;102608.56;7392642;19;20026;-58
2022/11/26 03:37:30;;;;;;;22.35;8.23;;;;;;;7.45;54.12;102605.34;7393064;19;20331;-58
2022/11/26 03:39:56;;;;;;;22.35;8.25;;;;;;;7.35;54.16;102601.53;7389902;19;20006;-58
2022/11/26 03:42:22;;;;;;;26.42;9.65;;;;;;;7.31;54.35;102605.91;7391464;19;20403;-58
2022/11/26 03:44:47;;;;;;;18.83;8.15;;;;;;;7.31;54.32;102608.63;7392201;19;20006;-58
2022/11/26 03:47:13;;;;;;;19.58;8.27;;;;;;;7.34;54.14;102602.59;7392711;19;20126;-58
2022/11/26 03:49:39;;;;;;;21.02;8.63;;;;;;;7.35;54.04;102604.25;7390486;19;20031;-58
2022/11/26 03:52:04;;;;;;;20.67;9.13;;;;;;;7.38;53.98;102606.41;7392981;19;20010;-58
2022/11/26 03:54:30;;;;;;;22.33;8.75;;;;;;;7.39;53.95;102604.50;7391346;19;20075;-58
2022/11/26 03:56:56;;;;;;;22.98;9.30;;;;;;;7.33;53.79;102601.00;7391541;19;20321;-58
2022/11/26 03:59:21;;;;;;;22.33;8.98;;;;;;;7.28;53.95;102602.91;7389522;19;19999;-58
2022/11/26 04:01:47;;;;;;;20.25;8.05;;;;;;;7.25;54.14;102609.72;7391756;19;20066;-58
2022/11/26 04:04:13;;;;;;;22.58;8.85;;;;;;;7.25;54.06;102604.28;7390348;19;20006;-59
2022/11/26 04:06:38;;;;;;;23.00;9.07;;;;;;;7.16;54.37;102614.06;7391228;19;20010;-59
2022/11/26 04:09:04;;;;;;;27.58;9.27;;;;;;;7.25;54.27;102608.91;7391527;19;20079;-59
2022/11/26 04:11:30;;;;;;;22.45;8.68;;;;;;;7.31;53.94;102608.63;7391826;19;20493;-58
2022/11/26 04:13:56;;;;;;;27.02;9.45;;;;;;;7.38;53.80;102614.56;7391868;19;20329;-59
2022/11/26 04:16:21;;;;;;;22.88;9.65;;;;;;;7.34;53.92;102618.91;7390920;19;20027;-58
2022/11/26 04:18:47;;;;;;;20.73;8.88;;;;;;;7.34;53.99;102627.06;7391275;19;20511;-59
2022/11/26 04:21:12;;;;;;;21.23;9.65;;;;;;;7.25;54.29;102631.44;7392019;19;20007;-59
2022/11/26 04:23:38;;;;;;;20.85;8.90;;;;;;;7.27;54.10;102631.97;7390310;19;20013;-59
2022/11/26 04:26:04;;;;;;;21.50;9.57;;;;;;;7.22;53.91;102642.84;7391003;19;19994;-59
2022/11/26 04:28:30;;;;;;;19.92;8.07;;;;;;;7.27;54.00;102645.56;7391160;19;20005;-58
2022/11/26 04:30:56;;;;;;;16.10;8.18;;;;;;;7.29;54.15;102653.44;7389774;19;20010;-59
2022/11/26 04:33:22;;;;;;;20.35;9.27;;;;;;;7.33;53.91;102649.06;7391690;19;19994;-58
2022/11/26 04:35:49;;;;;;;24.00;9.65;;;;;;;7.28;53.92;102649.06;7390580;19;20001;-58
2022/11/26 04:38:15;;;;;;;22.48;9.48;;;;;;;7.25;54.06;102652.34;7390983;19;20022;-58
2022/11/26 04:40:40;;;;;;;20.17;8.85;;;;;;;7.24;54.21;102656.97;7391355;19;20052;-57
2022/11/26 04:43:06;;;;;;;21.63;8.77;;;;;;;7.23;53.97;102661.59;7389633;19;20354;-58
2022/11/26 04:45:32;;;;;;;25.00;10.00;;;;;;;7.23;54.04;102666.22;7390569;19;19999;-58
2022/11/26 04:47:58;;;;;;;21.08;9.13;;;;;;;7.16;54.22;102660.22;7389093;19;19995;-58
2022/11/26 04:50:24;;;;;;;22.55;9.95;;;;;;;7.25;54.18;102674.91;7391518;19;20305;-58
2022/11/26 04:52:49;;;;;;;26.45;9.55;;;;;;;7.18;54.18;102671.66;7388616;19;19995;-58
2022/11/26 04:55:16;;;;;;;27.42;10.40;;;;;;;7.12;54.21;102680.88;7389919;19;19999;-58
2022/11/26 04:57:42;;;;;;;19.02;9.60;;;;;;;7.20;54.19;102683.03;7390416;19;20000;-58
2022/11/26 05:00:09;;;;;;;22.25;10.15;;;;;;;7.23;53.75;102685.22;7387247;19;20099;-58
2022/11/26 05:02:35;;;;;;;24.42;10.80;;;;;;;7.15;54.06;102697.44;7387887;19;20490;-58
2022/11/26 05:05:01;;;;;;;25.27;11.77;;;;;;;7.19;54.14;102692.28;7391023;19;20023;-58
2022/11/26 05:07:27;;;;;;;21.10;11.10;;;;;;;7.26;53.73;102692.81;7397870;19;19998;-59
2022/11/26 05:09:52;;;;;;;28.25;11.55;;;;;;;7.12;54.00;102686.31;7395480;19;20471;-58
2022/11/26 05:12:18;;;;;;;33.92;12.00;;;;;;;7.07;54.25;102692.53;7397924;19;20036;-57
2022/11/26 05:14:44;;;;;;;27.70;11.98;;;;;;;7.05;54.24;102700.97;7397922;19;19999;-57
2022/11/26 05:17:09;;;;;;;23.80;11.45;;;;;;;6.96;54.35;102704.47;7396922;19;20006;-57
2022/11/26 05:19:35;;;;;;;26.58;11.80;;;;;;;7.06;54.13;102693.63;7393952;19;19998;-58
2022/11/26 05:22:01;;;;;;;31.70;11.05;;;;;;;7.09;53.95;102708.56;7396425;19;20002;-57
2022/11/26 05:24:26;;;;;;;55.85;12.27;;;;;;;6.99;54.32;102710.19;7397043;19;19994;-57
2022/11/26 05:26:52;;;;;;;27.73;11.73;;;;;;;6.94;54.54;102707.44;7396387;19;20026;-56
2022/11/26 05:29:17;;;;;;;20.13;10.40;;;;;;;6.96;54.56;102713.44;7394932;19;20006;-57
2022/11/26 05:31:43;;;;;;;26.73;11.35;;;;;;;6.91;54.55;102709.88;7397643;19;20007;-57
2022/11/26 05:34:09;;;;;;;24.67;10.55;;;;;;;6.99;54.20;102717.50;7396921;19;20006;-57
2022/11/26 05:36:34;;;;;;;44.50;11.35;;;;;;;6.81;54.53;102721.53;7395061;19;20014;-57
2022/11/26 05:39:00;;;;;;;31.15;10.38;;;;;;;6.91;54.63;102727.03;7395182;19;20007;-57
2022/11/26 05:41:26;;;;;;;35.40;11.25;;;;;;;6.87;54.59;102720.44;7397069;19;20006;-57
2022/11/26 05:43:51;;;;;;;31.73;12.50;;;;;;;6.89;54.37;102712.03;7396441;19;20002;-57
2022/11/26 05:46:17;;;;;;;32.05;12.02;;;;;;;6.83;54.50;102717.47;7396750;19;20002;-58
2022/11/26 05:48:43;;;;;;;32.30;11.48;;;;;;;6.79;54.83;102727.22;7395735;19;20031;-59
2022/11/26 05:51:09;;;;;;;59.85;12.73;;;;;;;6.79;54.78;102729.94;7396119;19;20003;-59
2022/11/26 05:53:35;;;;;;;45.08;12.32;;;;;;;6.80;54.73;102737.00;7394922;19;20016;-60
2022/11/26 05:56:01;;;;;;;29.65;12.45;;;;;;;6.74;54.81;102737.25;7395835;19;20027;-59
2022/11/26 05:58:26;;;;;;;27.88;11.63;;;;;;;6.83;54.80;102741.91;7395213;19;20007;-60
2022/11/26 06:00:52;;;;;;;50.40;12.15;;;;;;;6.95;54.35;102749.81;7396160;19;20094;-59
2022/11/26 06:03:18;;;;;;;35.05;11.65;;;;;;;6.92;54.40;102758.50;7394568;19;19997;-59
2022/11/26 06:05:44;;;;;;;28.65;11.63;;;;;;;6.86;54.57;102751.38;7396116;19;20095;-59
2022/11/26 06:08:10;;;;;;;31.52;12.20;;;;;;;6.83;54.68;102749.22;7395570;19;19990;-59
2022/11/26 06:10:36;;;;;;;31.55;10.88;;;;;;;6.76;54.77;102754.06;7396262;19;19998;-59
2022/11/26 06:13:02;;;;;;;32.67;11.30;;;;;;;6.78;54.88;102751.94;7395806;19;19999;-59
2022/11/26 06:15:28;;;;;;;24.48;11.20;;;;;;;6.84;54.90;102756.28;7393497;19;20006;-59
2022/11/26 06:17:53;;;;;;;34.92;11.90;;;;;;;6.85;54.72;102753.28;7394058;19;20337;-60
2022/11/26 06:20:19;;;;;;;35.28;11.57;;;;;;;6.77;55.08;102756.53;7396002;19;20007;-59
2022/11/26 06:22:45;;;;;;;24.55;11.60;;;;;;;6.80;55.06;102760.63;7394319;19;19999;-59
2022/11/26 06:25:12;;;;;;;80.70;14.55;;;;;;;6.67;55.06;102767.34;7393662;19;19998;-60
2022/11/26 06:27:39;;;;;;;29.42;12.30;;;;;;;6.70;55.51;102760.59;7395661;19;20391;-59
2022/11/26 06:30:07;;;;;;;40.22;11.35;;;;;;;6.85;55.06;102763.34;7390725;19;20006;-61
2022/11/26 06:32:33;;;;;;;31.55;12.10;;;;;;;6.84;54.99;102770.69;7395855;19;20002;-61
2022/11/26 06:34:58;;;;;;;46.50;12.55;;;;;;;6.87;54.80;102780.16;7394641;19;20002;-61
2022/11/26 06:37:24;;;;;;;39.22;12.88;;;;;;;6.92;54.76;102777.50;7393156;19;19997;-61
2022/11/26 06:39:50;;;;;;;33.83;12.80;;;;;;;6.88;54.98;102789.97;7392937;19;19995;-61
2022/11/26 06:42:16;;;;;;;23.17;11.38;;;;;;;6.98;54.88;102789.22;7394240;19;20367;-61
2022/11/26 06:44:42;;;;;;;34.10;11.60;;;;;;;6.99;54.64;102785.38;7394308;19;20022;-60
2022/11/26 06:47:11;;;;;;;23.08;11.57;;;;;;;7.01;54.74;102794.91;7394492;19;20011;-61
2022/11/26 06:49:37;;;;;;;40.88;12.80;;;;;;;7.03;54.63;102803.59;7393048;19;20020;-60
2022/11/26 06:52:03;;;;;;;63.05;13.30;;;;;;;6.96;54.84;102791.34;7394856;19;19994;-60
2022/11/26 06:54:28;;;;;;;33.75;11.80;;;;;;;6.97;55.22;102793.00;7392005;19;19994;-60
2022/11/26 06:56:54;;;;;;;50.40;13.32;;;;;;;6.99;55.03;102802.50;7391810;19;19994;-60
2022/11/26 06:59:20;;;;;;;32.70;12.73;;;;;;;6.99;55.15;102802.50;7393182;19;20066;-60
2022/11/26 07:01:45;;;;;;;40.30;11.80;;;;;;;7.02;54.95;102801.94;7393555;19;19999;-60
2022/11/26 07:04:11;;;;;;;41.50;13.07;;;;;;;6.92;55.33;102801.13;7394391;19;20002;-60
2022/11/26 07:06:37;;;;;;;34.67;12.88;;;;;;;6.97;55.44;102806.56;7392401;19;20017;-60
2022/11/26 07:09:06;;;;;;;31.65;12.88;;;;;;;7.02;55.23;102804.66;7394138;19;20032;-61
2022/11/26 07:11:33;;;;;;;35.83;13.27;;;;;;;6.99;55.44;102801.69;7393395;19;19998;-60
2022/11/26 07:14:00;;;;;;;30.80;12.45;;;;;;;7.09;55.08;102800.91;7393801;19;19998;-60
2022/11/26 07:16:26;;;;;;;28.05;13.45;;;;;;;7.12;55.04;102801.16;7392679;19;20024;-60
2022/11/26 07:18:54;;;;;;;32.63;13.88;;;;;;;7.06;55.31;102796.81;7392608;19;20022;-60
2022/11/26 07:21:20;;;;;;;29.25;12.90;;;;;;;7.08;55.20;102800.09;7393000;19;20024;-61
2022/11/26 07:23:46;;;;;;;36.10;13.73;;;;;;;7.18;55.12;102810.16;7391651;19;19995;-61
2022/11/26 07:26:13;;;;;;;44.20;15.13;;;;;;;7.16;55.12;102812.31;7390464;19;20466;-61
2022/11/26 07:28:39;;;;;;;53.63;16.02;;;;;;;7.10;55.17;102822.34;7389807;19;20018;-61
2022/11/26 07:31:08;;;;;;;61.05;15.10;;;;;;;7.13;55.00;102824.53;7389363;19;20015;-61
2022/11/26 07:33:34;;;;;;;36.42;14.68;;;;;;;6.92;56.02;102826.38;7392612;19;20345;-61
2022/11/26 07:36:01;;;;;;;37.67;14.60;;;;;;;7.08;55.55;102827.25;7392243;19;20010;-61
2022/11/26 07:38:27;;;;;;;45.03;13.98;;;;;;;7.07;55.21;102831.03;7391553;19;20011;-61
2022/11/26 07:40:54;;;;;;;55.05;14.70;;;;;;;6.95;55.59;102833.97;7393719;19;20037;-61
2022/11/26 07:43:20;;;;;;;36.13;14.00;;;;;;;7.07;55.57;102838.38;7390733;19;20368;-61
2022/11/26 07:45:46;;;;;;;36.78;14.43;;;;;;;7.26;55.25;102839.47;7389873;19;20481;-60
2022/11/26 07:48:11;;;;;;;36.95;13.45;;;;;;;7.34;54.72;102841.66;7392340;19;19998;-62
2022/11/26 07:50:37;;;;;;;39.67;14.75;;;;;;;7.35;54.86;102842.50;7390996;19;20023;-61
2022/11/26 07:53:03;;;;;;;41.83;14.82;;;;;;;7.20;55.15;102846.00;7390102;19;20002;-60
2022/11/26 07:55:28;;;;;;;34.15;13.52;;;;;;;7.18;55.07;102845.47;7391757;19;20009;-59
2022/11/26 07:57:54;;;;;;;33.42;13.57;;;;;;;7.07;55.56;102851.94;7392123;19;20015;-60
2022/11/26 08:00:20;;;;;;;43.30;14.48;;;;;;;7.17;55.17;102851.97;7391970;19;20468;-61
2022/11/26 08:02:46;;;;;;;41.85;14.18;;;;;;;7.29;54.74;102844.38;7393605;19;20002;-59
2022/11/26 08:05:11;;;;;;;41.35;13.55;;;;;;;7.17;54.80;102849.25;7390991;19;20470;-59
2022/11/26 08:07:37;;;;;;;42.50;12.90;;;;;;;7.09;55.18;102852.50;7391751;19;20033;-59
2022/11/26 08:10:04;;;;;;;37.67;12.35;;;;;;;7.16;55.10;102847.59;7389811;19;20061;-60
2022/11/26 08:12:29;;;;;;;27.88;11.48;;;;;;;7.12;55.17;102847.34;7391864;19;20446;-60
2022/11/26 08:14:55;;;;;;;32.58;12.55;;;;;;;7.13;54.96;102854.41;7389888;19;19998;-60
2022/11/26 08:17:21;;;;;;;32.05;12.95;;;;;;;7.16;55.17;102862.03;7392434;19;19999;-60
2022/11/26 08:19:46;;;;;;;26.70;11.30;;;;;;;7.16;55.05;102866.63;7389945;19;20015;-60
2022/11/26 08:22:12;;;;;;;27.40;11.35;;;;;;;7.20;54.99;102871.25;7391288;19;20003;-62
2022/11/26 08:24:38;;;;;;;26.80;11.80;;;;;;;7.26;54.84;102872.06;7390024;19;20010;-60
2022/11/26 08:27:04;;;;;;;25.77;10.98;;;;;;;7.32;54.74;102871.00;7390104;19;20019;-61
2022/11/26 08:29:30;;;;;;;33.15;11.35;;;;;;;7.33;54.49;102869.94;7387614;19;20365;-60
2022/11/26 08:31:55;;;;;;;31.50;12.02;;;;;;;7.30;54.67;102867.75;7391747;19;20006;-61
2022/11/26 08:34:21;;;;;;;41.55;11.88;;;;;;;7.23;54.67;102873.44;7391168;19;20003;-60
2022/11/26 08:36:47;;;;;;;46.75;13.25;;;;;;;7.17;54.95;102873.69;7389660;19;20009;-60
2022/11/26 08:39:16;;;;;;;47.65;12.98;;;;;;;7.19;55.09;102887.81;7389570;19;20003;-60
2022/11/26 08:41:42;;;;;;;23.67;11.50;;;;;;;7.30;54.83;102884.06;7389297;19;20023;-60
2022/11/26 08:44:08;;;;;;;30.60;12.23;;;;;;;7.33;54.71;102878.09;7390853;19;20378;-61
2022/11/26 08:46:38;;;;;;;24.35;11.63;;;;;;;7.29;55.00;102890.56;7389703;19;19998;-61
2022/11/26 08:49:04;;;;;;;26.02;12.35;;;;;;;7.25;55.20;102881.31;7390103;19;20402;-60
2022/11/26 08:51:30;;;;;;;26.92;11.88;;;;;;;7.25;55.22;102886.75;7391094;19;20012;-60
2022/11/26 08:53:56;;;;;;;24.63;11.85;;;;;;;7.35;54.94;102889.50;7390050;19;20114;-60
2022/11/26 08:56:22;;;;;;;24.08;12.23;;;;;;;7.46;54.60;102881.38;7390507;19;20033;-60
2022/11/26 08:58:47;;;;;;;38.30;14.00;;;;;;;7.56;54.58;102897.69;7389560;19;20451;-60
2022/11/26 09:01:32;;;;;;;31.00;13.25;;;;;;;7.47;54.73;102894.69;7389338;19;19995;-60
2022/11/26 09:04:03;;;;;;;28.08;13.57;;;;;;;7.53;54.65;102898.22;7389569;19;19999;-60
2022/11/26 09:06:31;;;;;;;27.85;13.07;;;;;;;7.60;54.61;102902.31;7390622;19;20003;-60
2022/11/26 09:09:11;;;;;;;32.03;13.45;;;;;;;7.67;54.36;102898.53;7389015;19;20002;-59
2022/11/26 09:11:50;;;;;;;26.92;14.02;;;;;;;7.62;54.75;102902.06;7389564;19;20003;-61
2022/11/26 09:14:18;;;;;;;28.33;13.73;;;;;;;7.54;54.89;102902.56;7389899;19;20006;-59
2022/11/26 09:16:44;;;;;;;29.00;13.45;;;;;;;7.57;54.88;102902.03;7389790;19;20384;-60
2022/11/26 09:19:12;;;;;;;23.67;12.90;;;;;;;7.54;54.70;102900.66;7388293;19;20058;-61
2022/11/26 09:21:38;;;;;;;21.00;11.20;;;;;;;7.62;54.92;102902.06;7390323;19;20007;-60
2022/11/26 09:24:04;;;;;;;24.60;11.65;;;;;;;7.68;54.55;102898.25;7389557;19;20003;-60
2022/11/26 09:26:31;;;;;;;31.58;12.85;;;;;;;7.63;54.70;102919.16;7389066;19;20022;-61
2022/11/26 09:28:57;;;;;;;24.88;11.38;;;;;;;7.68;54.82;102911.84;7388809;19;20458;-60
2022/11/26 09:31:23;;;;;;;22.95;11.90;;;;;;;7.74;54.46;102913.47;7387198;19;20003;-60
2022/11/26 09:33:49;;;;;;;24.77;12.57;;;;;;;7.62;54.87;102917.56;7389563;19;20017;-60
2022/11/26 09:36:17;;;;;;;23.70;12.73;;;;;;;7.67;55.04;102923.81;7388535;19;19999;-61
2022/11/26 09:38:43;;;;;;;23.30;11.82;;;;;;;7.71;54.88;102916.75;7389080;19;20034;-61
2022/11/26 09:41:29;;;;;;;21.30;10.77;;;;;;;7.72;55.08;102923.00;7389658;19;19994;-61
2022/11/26 09:44:14;;;;;;;23.80;11.68;;;;;;;7.73;55.18;102925.44;7387298;19;20078;-61
2022/11/26 09:47:17;;;;;;;19.63;9.73;;;;;;;7.91;54.90;102926.00;7388359;19;20001;-61
2022/11/26 09:49:45;;;;;;;24.15;12.57;;;;;;;7.88;54.79;102929.25;7384999;19;20349;-60
2022/11/26 09:52:16;;;;;;;31.40;11.93;;;;;;;7.82;55.09;102933.06;7390493;19;20028;-59
2022/11/26 09:54:43;;;;;;;24.23;12.38;;;;;;;7.84;55.28;102942.56;7396362;19;19999;-60
2022/11/26 09:57:41;;;;;;;21.77;11.63;;;;;;;7.83;55.39;102946.41;7395117;19;20321;-60
2022/11/26 10:00:21;;;;;;;19.60;11.38;;;;;;;7.87;55.30;102946.66;7392377;19;20474;-59
2022/11/26 10:02:49;;;;;;;22.17;12.60;;;;;;;8.02;55.07;102952.13;7395252;19;20009;-59
2022/11/26 10:05:15;;;;;;;22.17;13.05;;;;;;;8.04;55.17;102958.09;7395744;19;19998;-59
2022/11/26 10:07:52;;;;;;;25.50;12.32;;;;;;;7.94;55.69;102952.66;7395220;19;20022;-60
2022/11/26 10:10:22;;;;;;;21.42;12.05;;;;;;;8.14;54.90;102963.53;7395956;19;20069;-60
2022/11/26 10:13:02;;;;;;;26.95;12.55;;;;;;;8.18;55.16;102963.00;7395372;19;20002;-60
2022/11/26 10:15:37;;;;;;;22.77;12.02;;;;;;;7.95;55.58;102959.75;7395339;19;20062;-59
2022/11/26 10:18:21;;;;;;;32.95;13.95;;;;;;;8.01;55.68;102958.63;7394489;19;19999;-59
2022/11/26 10:21:07;;;;;;;27.08;13.32;;;;;;;8.03;55.53;102956.47;7393632;19;20062;-59
2022/11/26 10:23:45;;;;;;;24.95;13.25;;;;;;;8.05;55.52;102954.31;7392101;19;20002;-59
2022/11/26 10:26:25;;;;;;;25.27;13.93;;;;;;;8.15;55.60;102967.91;7393081;19;19994;-59
2022/11/26 10:29:11;;;;;;;25.48;13.18;;;;;;;8.22;55.38;102970.34;7392251;19;20028;-59
2022/11/26 10:31:40;;;;;;;27.38;13.75;;;;;;;8.27;55.43;102964.09;7392131;19;20039;-59
2022/11/26 10:34:15;;;;;;;28.48;12.77;;;;;;;8.19;55.53;102970.09;7395137;19;20007;-60
2022/11/26 10:36:44;;;;;;;26.48;12.95;;;;;;;8.43;55.20;102967.66;7393982;19;19999;-59
2022/11/26 10:39:19;;;;;;;28.45;13.23;;;;;;;8.36;55.55;102973.34;7393124;19;20502;-62
2022/11/26 10:41:46;;;;;;;29.80;14.88;;;;;;;8.41;55.22;102965.19;7394409;19;20016;-60
2022/11/26 10:44:27;;;;;;;31.80;15.13;;;;;;;8.53;55.08;102965.75;7395000;19;20003;-59
2022/11/26 10:46:53;;;;;;;31.40;16.20;;;;;;;8.60;55.17;102967.34;7392545;19;20007;-59
2022/11/26 10:49:25;;;;;;;27.13;15.32;;;;;;;8.59;55.22;102958.38;7393117;19;20011;-59
2022/11/26 10:52:00;;;;;;;29.10;14.65;;;;;;;8.58;55.09;102958.66;7393107;19;20031;-59
2022/11/26 10:54:40;;;;;;;28.23;14.15;;;;;;;8.48;55.63;102959.47;7395023;19;20018;-60
2022/11/26 10:57:08;;;;;;;30.10;14.35;;;;;;;8.54;55.50;102950.22;7392637;19;20022;-60
2022/11/26 11:00:00;;;;;;;28.73;15.52;;;;;;;8.58;55.64;102955.91;7392561;19;20358;-58
2022/11/26 11:02:40;;;;;;;27.40;14.02;;;;;;;8.70;55.28;102953.75;7390611;19;19999;-58
2022/11/26 11:05:08;;;;;;;33.28;15.70;;;;;;;8.55;55.83;102959.19;7393861;19;20003;-59
2022/11/26 11:07:36;;;;;;;27.13;14.95;;;;;;;8.49;55.88;102961.91;7393504;19;20016;-59
2022/11/26 11:10:08;;;;;;;32.35;16.33;;;;;;;8.58;55.72;102955.91;7392116;19;19999;-60
2022/11/26 11:12:35;;;;;;;30.73;15.73;;;;;;;8.66;55.71;102960.81;7394225;19;20486;-59
2022/11/26 11:15:22;;;;;;;29.70;16.05;;;;;;;8.65;55.48;102957.28;7392785;19;20011;-59
2022/11/26 11:18:02;;;;;;;31.30;16.80;;;;;;;8.60;55.66;102959.19;7394775;19;20003;-59
2022/11/26 11:20:34;;;;;;;33.22;15.65;;;;;;;8.55;55.58;102968.19;7393740;19;20077;-58
2022/11/26 11:23:05;;;;;;;31.13;15.15;;;;;;;8.51;55.91;102983.41;7392498;19;19995;-59
2022/11/26 11:25:34;;;;;;;30.27;15.23;;;;;;;8.47;56.01;102974.19;7390549;19;20500;-59
2022/11/26 11:28:06;;;;;;;29.63;16.13;;;;;;;8.60;55.49;102973.63;7393410;19;20002;-59
2022/11/26 11:30:36;;;;;;;30.20;16.45;;;;;;;8.50;55.77;102979.91;7392323;19;20035;-60